createdAt,value
2018-03-12T00:03:28.334Z,24.60
2018-03-12T00:08:31.796Z,24.30
2018-03-12T00:13:34.307Z,26.17
2018-03-12T00:18:37.485Z,28.93
2018-03-12T00:23:40.073Z,25.30
2018-03-12T00:28:42.669Z,23.70
2018-03-12T00:33:45.554Z,24.73
2018-03-12T00:38:50.289Z,23.23
2018-03-12T00:43:53.632Z,24.50
2018-03-12T00:48:56.981Z,25.20
2018-03-12T00:54:00.233Z,24.20
2018-03-12T00:59:02.817Z,24.20
2018-03-12T01:04:06.919Z,25.10
2018-03-12T01:09:15.480Z,25.43
2018-03-12T01:14:18.050Z,25.30
2018-03-12T01:19:20.640Z,27.20
2018-03-12T01:24:23.860Z,24.60
2018-03-12T01:29:27.232Z,27.10
2018-03-12T01:34:31.032Z,27.00
2018-03-12T01:39:33.620Z,24.50
2018-03-12T01:44:36.860Z,24.10
2018-03-12T01:49:39.456Z,25.07
2018-03-12T01:54:42.041Z,23.20
2018-03-12T01:59:44.640Z,24.50
2018-03-12T02:04:47.244Z,23.27
2018-03-12T02:09:50.059Z,24.40
2018-03-12T02:14:52.900Z,25.37
2018-03-12T02:19:55.484Z,23.57
2018-03-12T02:24:58.932Z,25.13
2018-03-12T02:30:01.875Z,24.07
2018-03-12T02:35:04.444Z,23.93
2018-03-12T02:40:07.047Z,26.07
2018-03-12T02:45:10.084Z,24.87
2018-03-12T02:50:12.670Z,25.30
2018-03-12T02:55:15.824Z,24.93
2018-03-12T03:00:21.787Z,24.90
2018-03-12T03:05:25.137Z,24.43
2018-03-12T03:10:28.640Z,24.67
2018-03-12T03:15:31.984Z,23.60
2018-03-12T03:20:34.568Z,25.10
2018-03-12T03:25:37.630Z,24.57
2018-03-12T03:30:40.197Z,24.77
2018-03-12T03:35:43.597Z,27.93
2018-03-12T03:40:48.436Z,28.23
2018-03-12T03:45:51.978Z,27.07
2018-03-12T03:50:54.560Z,29.43
2018-03-12T03:55:57.141Z,26.80
2018-03-12T04:01:00.527Z,25.90
2018-03-12T04:06:03.110Z,25.53
2018-03-12T04:11:06.315Z,25.67
2018-03-12T04:16:08.913Z,26.93
2018-03-12T04:21:11.529Z,26.87
2018-03-12T04:26:15.647Z,34.50
2018-03-12T04:31:18.246Z,31.10
2018-03-12T04:36:21.637Z,29.27
2018-03-12T04:41:25.637Z,26.57
2018-03-12T04:46:34.530Z,28.07
2018-03-12T04:51:37.104Z,27.73
2018-03-12T04:56:39.676Z,27.43
2018-03-12T05:01:43.413Z,30.07
2018-03-12T05:06:46.004Z,31.60
2018-03-12T05:11:49.637Z,30.60
2018-03-12T05:16:53.429Z,31.77
2018-03-12T05:21:56.025Z,31.20
2018-03-12T05:26:58.600Z,26.27
2018-03-12T05:32:01.212Z,27.20
2018-03-12T05:37:03.798Z,28.07
2018-03-12T05:42:06.709Z,27.17
2018-03-12T05:47:09.358Z,28.60
2018-03-12T05:52:12.250Z,25.90
2018-03-12T05:57:15.397Z,27.93
2018-03-12T06:02:18.385Z,30.60
2018-03-12T06:07:21.744Z,28.90
2018-03-12T06:12:24.842Z,27.83
2018-03-12T06:17:27.436Z,29.70
2018-03-12T06:22:30.021Z,26.23
2018-03-12T06:27:34.026Z,26.00
2018-03-12T06:32:36.592Z,23.03
2018-03-12T06:37:39.172Z,20.13
2018-03-12T06:42:41.822Z,16.53
2018-03-12T06:47:46.175Z,14.67
2018-03-12T06:52:50.312Z,11.47
2018-03-12T06:57:56.350Z,11.93
2018-03-12T07:02:58.939Z,11.27
2018-03-12T07:08:02.080Z,7.90
2018-03-12T07:13:04.670Z,7.30
2018-03-12T07:18:10.605Z,7.77
2018-03-12T07:23:13.749Z,7.80
2018-03-12T07:28:16.916Z,8.73
2018-03-12T07:33:19.499Z,8.00
2018-03-12T07:38:23.428Z,9.20
2018-03-12T07:43:26.775Z,9.33
2018-03-12T07:48:29.376Z,9.07
2018-03-12T07:53:38.865Z,9.70
2018-03-12T07:58:41.468Z,9.47
2018-03-12T08:03:44.772Z,9.47
2018-03-12T08:08:49.769Z,10.77
2018-03-12T08:13:53.608Z,9.40
2018-03-12T08:18:56.163Z,9.40
2018-03-12T08:23:58.736Z,10.93
2018-03-12T08:29:01.344Z,9.70
2018-03-12T08:34:04.429Z,9.60
2018-03-12T08:39:07.017Z,8.40
2018-03-12T08:44:10.752Z,10.03
2018-03-12T08:49:13.324Z,8.40
2018-03-12T08:54:16.061Z,8.57
2018-03-12T08:59:18.664Z,9.00
2018-03-12T09:04:21.293Z,8.10
2018-03-12T09:09:23.910Z,8.23
2018-03-12T09:14:27.255Z,6.90
2018-03-12T09:19:30.697Z,7.00
2018-03-12T09:24:33.934Z,6.90
2018-03-12T09:29:36.524Z,6.50
2018-03-12T09:34:39.099Z,6.93
2018-03-12T09:39:42.144Z,6.40
2018-03-12T09:44:45.514Z,5.63
2018-03-12T09:49:51.246Z,6.40
2018-03-12T09:54:55.065Z,5.90
2018-03-12T09:59:58.816Z,5.70
2018-03-12T10:05:01.405Z,5.60
2018-03-12T10:10:05.226Z,5.47
2018-03-12T10:15:08.881Z,5.40
2018-03-12T10:20:13.484Z,4.60
2018-03-12T10:25:17.120Z,5.30
2018-03-12T10:30:20.608Z,4.77
2018-03-12T10:35:26.957Z,5.23
2018-03-12T10:40:29.541Z,5.67
2018-03-12T10:45:34.043Z,5.67
2018-03-12T10:50:36.621Z,5.97
2018-03-12T10:55:39.236Z,6.30
2018-03-12T11:00:47.492Z,6.03
2018-03-12T11:05:58.080Z,5.77
2018-03-12T11:11:01.510Z,5.20
2018-03-12T11:16:04.059Z,4.63
2018-03-12T11:21:07.124Z,5.20
2018-03-12T11:26:09.706Z,4.30
2018-03-12T11:31:14.238Z,4.23
2018-03-12T11:36:18.876Z,4.20
2018-03-12T11:41:21.478Z,4.17
2018-03-12T11:46:24.894Z,3.33
2018-03-12T11:51:27.464Z,3.47
2018-03-12T11:56:30.067Z,3.43
2018-03-12T12:01:33.801Z,3.20
2018-03-12T12:06:37.195Z,2.87
2018-03-12T12:11:41.349Z,2.77
2018-03-12T12:16:44.701Z,2.17
2018-03-12T12:21:49.665Z,2.43
2018-03-12T12:26:52.248Z,2.50
2018-03-12T12:32:02.093Z,2.37
2018-03-12T12:37:06.167Z,2.30
2018-03-12T12:42:08.746Z,1.83
2018-03-12T12:47:12.086Z,1.90
2018-03-12T12:52:14.678Z,2.30
2018-03-12T12:57:17.292Z,1.70
2018-03-12T13:02:22.394Z,1.60
2018-03-12T13:07:24.992Z,1.50
2018-03-12T13:12:28.421Z,1.40
2018-03-12T13:17:32.973Z,1.60
2018-03-12T13:22:37.261Z,1.20
2018-03-12T13:27:39.861Z,1.23
2018-03-12T13:32:42.463Z,0.97
2018-03-12T13:37:45.039Z,1.17
2018-03-12T13:42:48.183Z,1.00
2018-03-12T13:47:51.122Z,1.10
2018-03-12T13:52:55.255Z,1.20
2018-03-12T13:57:59.241Z,1.70
2018-03-12T14:03:01.814Z,1.70
2018-03-12T14:08:04.413Z,1.60
2018-03-12T14:13:07.607Z,1.53
2018-03-12T14:18:10.960Z,1.40
2018-03-12T14:23:13.554Z,1.53
2018-03-12T14:28:16.142Z,1.60
2018-03-12T14:33:19.413Z,1.50
2018-03-12T14:38:22.246Z,1.30
2018-03-12T14:43:24.817Z,1.70
2018-03-12T14:48:27.928Z,1.30
2018-03-12T14:53:33.135Z,1.50
2018-03-12T14:58:38.005Z,1.23
2018-03-12T15:03:40.622Z,1.13
2018-03-12T15:08:45.067Z,1.10
2018-03-12T15:13:49.993Z,1.50
2018-03-12T15:18:52.576Z,1.40
2018-03-12T15:23:55.153Z,1.47
2018-03-12T15:28:57.751Z,1.50
2018-03-12T15:34:00.332Z,1.27
2018-03-12T15:39:03.685Z,1.13
2018-03-12T15:44:06.941Z,1.10
2018-03-12T15:49:09.975Z,1.00
2018-03-12T15:54:13.320Z,0.87
2018-03-12T15:59:15.911Z,0.87
2018-03-12T16:04:18.618Z,0.80
2018-03-12T16:09:22.439Z,1.10
2018-03-12T16:14:25.815Z,1.10
2018-03-12T16:19:28.402Z,1.20
2018-03-12T16:24:31.280Z,1.87
2018-03-12T16:29:34.032Z,1.10
2018-03-12T16:34:38.144Z,1.10
2018-03-12T16:39:40.743Z,1.20
2018-03-12T16:44:43.585Z,1.70
2018-03-12T16:49:48.616Z,1.30
2018-03-12T16:54:52.066Z,1.97
2018-03-12T16:59:55.100Z,1.70
2018-03-12T17:04:58.839Z,1.60
2018-03-12T17:10:01.462Z,2.83
2018-03-12T17:15:04.040Z,2.10
2018-03-12T17:20:06.630Z,2.07
2018-03-12T17:25:09.211Z,1.90
2018-03-12T17:30:11.799Z,2.23
2018-03-12T17:35:14.685Z,1.53
2018-03-12T17:40:17.301Z,1.83
2018-03-12T17:45:19.883Z,1.80
2018-03-12T17:50:22.472Z,2.23
2018-03-12T17:55:25.898Z,3.00
2018-03-12T18:00:29.173Z,2.90
2018-03-12T18:05:31.797Z,2.50
2018-03-12T18:10:37.376Z,2.60
2018-03-12T18:15:41.121Z,1.80
2018-03-12T18:20:43.716Z,1.50
2018-03-12T18:25:46.302Z,2.93
2018-03-12T18:30:49.345Z,1.30
2018-03-12T18:35:51.921Z,1.03
2018-03-12T18:40:54.594Z,1.33
2018-03-12T18:45:57.938Z,1.17
2018-03-12T18:51:04.421Z,2.30
2018-03-12T18:56:07.008Z,5.10
2018-03-12T19:01:09.613Z,3.53
2018-03-12T19:06:12.203Z,4.53
2018-03-12T19:11:16.885Z,2.60
2018-03-12T19:16:20.086Z,2.07
2018-03-12T19:21:23.003Z,2.57
2018-03-12T19:26:25.616Z,2.63
2018-03-12T19:31:29.833Z,1.50
2018-03-12T19:36:32.417Z,1.80
2018-03-12T19:41:35.122Z,2.67
2018-03-12T19:46:38.233Z,1.50
2018-03-12T19:51:41.488Z,1.70
2018-03-12T19:56:44.057Z,1.83
2018-03-12T20:01:47.464Z,1.60
2018-03-12T20:06:50.337Z,1.20
2018-03-12T20:11:53.673Z,1.10
2018-03-12T20:16:57.959Z,1.00
2018-03-12T20:22:01.089Z,0.93
2018-03-12T20:27:04.462Z,0.90
2018-03-12T20:32:08.974Z,0.80
2018-03-12T20:37:11.593Z,1.00
2018-03-12T20:42:16.843Z,1.03
2018-03-12T20:47:19.417Z,1.20
2018-03-12T20:52:23.251Z,1.17
2018-03-12T20:57:27.245Z,0.87
2018-03-12T21:02:29.854Z,1.30
2018-03-12T21:07:32.433Z,1.10
2018-03-12T21:12:35.074Z,0.87
2018-03-12T21:17:38.691Z,0.97
2018-03-12T21:22:42.047Z,0.70
2018-03-12T21:27:44.618Z,0.70
2018-03-12T21:32:47.934Z,0.70
2018-03-12T21:37:51.292Z,0.70
2018-03-12T21:42:53.866Z,0.80
2018-03-12T21:47:56.479Z,0.70
2018-03-12T21:52:59.703Z,0.80
2018-03-12T21:58:02.339Z,0.93
2018-03-12T22:03:04.938Z,1.10
2018-03-12T22:08:07.524Z,0.90
2018-03-12T22:13:10.129Z,1.30
2018-03-12T22:18:13.489Z,1.03
2018-03-12T22:23:16.077Z,1.10
2018-03-12T22:28:18.663Z,1.37
2018-03-12T22:33:21.998Z,1.50
2018-03-12T22:38:24.593Z,1.40
2018-03-12T22:43:28.740Z,1.30
2018-03-12T22:48:31.521Z,1.30
2018-03-12T22:53:34.234Z,1.50
2018-03-12T22:58:36.951Z,1.60
2018-03-12T23:03:39.719Z,1.80
2018-03-12T23:08:43.346Z,1.90
2018-03-12T23:13:46.156Z,1.70
2018-03-12T23:18:48.956Z,1.40
2018-03-12T23:23:51.674Z,1.60
2018-03-12T23:28:54.488Z,1.90
2018-03-12T23:33:57.306Z,2.30
2018-03-12T23:39:00.087Z,2.00
2018-03-12T23:44:02.774Z,1.63
2018-03-12T23:49:05.450Z,2.10
2018-03-12T23:54:08.989Z,2.00
2018-03-12T23:59:11.693Z,1.70
